createdAt,value
2018-07-20T00:00:30.387Z,0.00
2018-07-20T00:01:30.387Z,0.00
2018-07-20T00:02:30.379Z,0.00
2018-07-20T00:03:30.380Z,0.00
2018-07-20T00:04:30.385Z,0.00
2018-07-20T00:05:30.436Z,0.00
2018-07-20T00:06:30.379Z,0.00
2018-07-20T00:07:30.380Z,0.00
2018-07-20T00:08:30.380Z,0.00
2018-07-20T00:09:30.377Z,0.00
2018-07-20T00:10:30.381Z,0.00
2018-07-20T00:11:30.381Z,0.00
2018-07-20T00:12:30.380Z,0.00
2018-07-20T00:13:30.381Z,0.00
2018-07-20T00:14:30.375Z,0.00
2018-07-20T00:15:30.375Z,0.00
2018-07-20T00:16:30.375Z,0.00
2018-07-20T00:17:30.374Z,0.00
2018-07-20T00:18:30.378Z,0.00
2018-07-20T00:19:30.377Z,0.00
2018-07-20T00:20:30.373Z,0.00
2018-07-20T00:21:30.371Z,0.00
2018-07-20T00:22:30.376Z,0.00
2018-07-20T00:23:30.378Z,0.00
2018-07-20T00:24:30.375Z,0.00
2018-07-20T00:25:30.372Z,0.00
2018-07-20T00:26:30.369Z,0.00
2018-07-20T00:27:30.369Z,0.00
2018-07-20T00:28:30.367Z,0.00
2018-07-20T00:29:30.367Z,0.00
2018-07-20T00:30:30.379Z,0.00
2018-07-20T00:31:30.370Z,0.00
2018-07-20T00:32:30.374Z,0.00
2018-07-20T00:33:30.369Z,0.00
2018-07-20T00:34:30.363Z,0.00
2018-07-20T00:35:30.364Z,0.00
2018-07-20T00:36:30.367Z,0.00
2018-07-20T00:37:30.369Z,0.00
2018-07-20T00:38:30.361Z,0.00
2018-07-20T00:39:30.360Z,0.00
2018-07-20T00:40:30.360Z,0.00
2018-07-20T00:41:30.357Z,0.00
2018-07-20T00:42:30.363Z,0.00
2018-07-20T00:43:30.360Z,0.00
2018-07-20T00:44:30.360Z,0.00
2018-07-20T00:45:30.359Z,0.00
2018-07-20T00:46:30.353Z,0.00
2018-07-20T00:47:30.353Z,0.00
2018-07-20T00:48:30.352Z,0.00
2018-07-20T00:49:30.350Z,0.00
2018-07-20T00:50:30.356Z,0.00
2018-07-20T00:51:30.356Z,0.00
2018-07-20T00:52:30.348Z,0.00
2018-07-20T00:53:30.346Z,0.00
2018-07-20T00:54:30.352Z,0.00
2018-07-20T00:55:30.352Z,0.00
2018-07-20T00:56:30.351Z,0.00
2018-07-20T00:57:30.347Z,0.00
2018-07-20T00:58:30.343Z,0.00
2018-07-20T00:59:30.343Z,0.00
2018-07-20T01:00:30.346Z,0.00
2018-07-20T01:01:30.340Z,0.00
2018-07-20T01:02:30.343Z,0.00
2018-07-20T01:03:30.343Z,0.00
2018-07-20T01:04:30.344Z,0.00
2018-07-20T01:05:30.392Z,0.00
2018-07-20T01:06:30.335Z,0.00
2018-07-20T01:07:30.334Z,0.00
2018-07-20T01:08:30.337Z,0.00
2018-07-20T01:09:30.335Z,0.00
2018-07-20T01:10:30.331Z,0.00
2018-07-20T01:11:30.330Z,0.00
2018-07-20T01:12:30.330Z,0.00
2018-07-20T01:13:30.326Z,0.00
2018-07-20T01:14:30.334Z,0.00
2018-07-20T01:15:30.330Z,0.00
2018-07-20T01:16:30.330Z,0.00
2018-07-20T01:17:30.329Z,0.00
2018-07-20T01:18:30.321Z,0.00
2018-07-20T01:19:30.321Z,0.00
2018-07-20T01:20:30.320Z,0.00
2018-07-20T01:21:30.320Z,0.00
2018-07-20T01:22:30.323Z,0.00
2018-07-20T01:23:30.324Z,0.00
2018-07-20T01:24:30.319Z,0.00
2018-07-20T01:25:30.312Z,0.00
2018-07-20T01:26:30.315Z,0.00
2018-07-20T01:27:30.314Z,0.00
2018-07-20T01:28:30.313Z,0.00
2018-07-20T01:29:30.312Z,0.00
2018-07-20T01:30:30.307Z,0.00
2018-07-20T01:31:30.304Z,0.00
2018-07-20T01:32:30.307Z,0.00
2018-07-20T01:33:30.302Z,0.00
2018-07-20T01:34:30.309Z,0.00
2018-07-20T01:35:30.305Z,0.00
2018-07-20T01:36:30.302Z,0.00
2018-07-20T01:37:30.301Z,0.00
2018-07-20T01:38:30.295Z,0.00
2018-07-20T01:39:30.296Z,0.00
2018-07-20T01:40:30.296Z,0.00
2018-07-20T01:41:30.294Z,0.00
2018-07-20T01:42:30.290Z,0.00
2018-07-20T01:43:30.291Z,0.00
2018-07-20T01:44:30.287Z,0.00
2018-07-20T01:45:30.285Z,0.00
2018-07-20T01:46:30.289Z,0.00
2018-07-20T01:47:30.288Z,0.00
2018-07-20T01:48:30.286Z,0.00
2018-07-20T01:49:30.285Z,0.00
2018-07-20T01:50:30.277Z,0.00
2018-07-20T01:51:30.276Z,0.00
2018-07-20T01:52:30.275Z,0.00
2018-07-20T01:53:30.275Z,0.00
2018-07-20T01:54:30.275Z,0.00
2018-07-20T01:55:30.276Z,0.00
2018-07-20T01:56:30.270Z,0.00
2018-07-20T01:57:30.267Z,0.00
2018-07-20T01:58:30.272Z,0.00
2018-07-20T01:59:30.269Z,0.00
2018-07-20T02:00:30.269Z,0.00
2018-07-20T02:01:30.266Z,0.00
2018-07-20T02:02:30.260Z,0.00
2018-07-20T02:03:30.258Z,0.00
2018-07-20T02:04:30.256Z,0.00
2018-07-20T02:05:30.255Z,0.00
2018-07-20T02:06:30.258Z,0.00
2018-07-20T02:07:30.255Z,0.00
2018-07-20T02:08:30.255Z,0.00
2018-07-20T02:09:30.253Z,0.00
2018-07-20T02:10:30.248Z,0.00
2018-07-20T02:11:30.245Z,0.00
2018-07-20T02:12:30.251Z,0.00
2018-07-20T02:13:30.248Z,0.00
2018-07-20T02:14:30.240Z,0.00
2018-07-20T02:15:30.238Z,0.00
2018-07-20T02:16:30.236Z,0.00
2018-07-20T02:17:30.234Z,0.00
2018-07-20T02:18:30.237Z,0.00
2018-07-20T02:19:30.235Z,0.00
2018-07-20T02:20:30.236Z,0.00
2018-07-20T02:21:30.238Z,0.00
2018-07-20T02:22:30.226Z,0.00
2018-07-20T02:23:30.224Z,0.00
2018-07-20T02:24:30.222Z,0.00
2018-07-20T02:25:30.222Z,0.00
2018-07-20T02:26:30.225Z,0.00
2018-07-20T02:27:30.221Z,0.00
2018-07-20T02:28:30.215Z,0.00
2018-07-20T02:29:30.248Z,0.00
2018-07-20T02:30:30.216Z,0.00
2018-07-20T02:31:30.216Z,0.00
2018-07-20T02:32:30.213Z,0.00
2018-07-20T02:33:30.210Z,0.00
2018-07-20T02:34:30.204Z,0.00
2018-07-20T02:35:30.205Z,0.00
2018-07-20T02:36:30.206Z,0.00
2018-07-20T02:37:30.199Z,0.00
2018-07-20T02:38:30.200Z,0.00
2018-07-20T02:39:30.199Z,0.00
2018-07-20T02:40:30.198Z,0.00
2018-07-20T02:41:30.197Z,0.00
2018-07-20T02:42:30.191Z,0.00
2018-07-20T02:43:30.189Z,0.00
2018-07-20T02:44:30.191Z,0.00
2018-07-20T02:45:30.189Z,0.00
2018-07-20T02:46:30.181Z,0.00
2018-07-20T02:47:30.181Z,0.00
2018-07-20T02:48:30.178Z,0.00
2018-07-20T02:49:30.175Z,0.00
2018-07-20T02:50:30.178Z,0.00
2018-07-20T02:51:30.178Z,0.00
2018-07-20T02:52:30.175Z,0.00
2018-07-20T02:53:30.174Z,0.00
2018-07-20T02:54:30.167Z,0.00
2018-07-20T02:55:30.164Z,0.00
2018-07-20T02:56:30.162Z,0.00
2018-07-20T02:57:30.159Z,0.00
2018-07-20T02:58:30.167Z,0.00
2018-07-20T02:59:30.165Z,0.00
2018-07-20T03:00:30.154Z,0.00
2018-07-20T03:01:30.152Z,0.00
2018-07-20T03:02:30.155Z,0.00
2018-07-20T03:03:30.153Z,0.00
2018-07-20T03:04:30.156Z,0.00
2018-07-20T03:05:30.148Z,0.00
2018-07-20T03:06:30.141Z,0.00
2018-07-20T03:07:30.140Z,0.00
2018-07-20T03:08:30.138Z,0.00
2018-07-20T03:09:30.135Z,0.00
2018-07-20T03:10:30.139Z,0.00
2018-07-20T03:11:30.137Z,0.00
2018-07-20T03:12:30.134Z,0.00
2018-07-20T03:13:30.132Z,0.00
2018-07-20T03:14:30.125Z,0.00
2018-07-20T03:15:30.123Z,0.00
2018-07-20T03:16:30.132Z,0.00
2018-07-20T03:17:30.124Z,0.00
2018-07-20T03:18:30.121Z,0.00
2018-07-20T03:19:30.115Z,0.00
2018-07-20T03:20:30.112Z,0.00
2018-07-20T03:21:30.112Z,0.00
2018-07-20T03:22:30.115Z,0.00
2018-07-20T03:23:30.114Z,0.00
2018-07-20T03:24:30.110Z,0.00
2018-07-20T03:25:30.111Z,0.00
2018-07-20T03:26:30.101Z,5.63
2018-07-20T03:27:30.099Z,5.63
2018-07-20T03:28:30.096Z,5.63
2018-07-20T03:29:30.095Z,5.63
2018-07-20T03:30:30.098Z,5.63
2018-07-20T03:31:30.093Z,5.63
2018-07-20T03:32:30.091Z,5.63
2018-07-20T03:33:30.086Z,5.63
2018-07-20T03:34:30.093Z,5.63
2018-07-20T03:35:30.085Z,11.25
2018-07-20T03:36:30.085Z,11.25
2018-07-20T03:37:30.083Z,11.25
2018-07-20T03:38:30.077Z,11.25
2018-07-20T03:39:30.070Z,11.25
2018-07-20T03:40:30.069Z,11.25
2018-07-20T03:41:30.069Z,11.25
2018-07-20T03:42:30.071Z,11.25
2018-07-20T03:43:30.067Z,16.88
2018-07-20T03:44:30.064Z,16.88
2018-07-20T03:45:30.063Z,16.88
2018-07-20T03:46:30.058Z,16.88
2018-07-20T03:47:30.053Z,22.50
2018-07-20T03:48:30.094Z,22.50
2018-07-20T03:49:30.054Z,22.50
2018-07-20T03:50:30.045Z,28.13
2018-07-20T03:51:30.045Z,28.13
2018-07-20T03:52:30.044Z,28.13
2018-07-20T03:53:30.041Z,33.75
2018-07-20T03:54:30.042Z,33.75
2018-07-20T03:55:30.042Z,33.75
2018-07-20T03:56:30.039Z,39.38
2018-07-20T03:57:30.037Z,39.38
2018-07-20T03:58:30.030Z,39.38
2018-07-20T03:59:30.026Z,45.00
2018-07-20T04:00:30.022Z,45.00
2018-07-20T04:01:30.023Z,50.63
2018-07-20T04:02:30.064Z,50.63
2018-07-20T04:03:30.021Z,56.25
2018-07-20T04:04:30.013Z,56.25
2018-07-20T04:05:30.010Z,61.88
2018-07-20T04:06:30.013Z,61.88
2018-07-20T04:07:30.011Z,67.50
2018-07-20T04:08:30.009Z,67.50
2018-07-20T04:09:30.006Z,73.13
2018-07-20T04:10:29.999Z,73.13
2018-07-20T04:11:29.997Z,78.75
2018-07-20T04:12:29.995Z,78.75
2018-07-20T04:13:29.993Z,78.75
2018-07-20T04:14:29.995Z,84.38
2018-07-20T04:15:29.992Z,90.00
2018-07-20T04:16:29.991Z,90.00
2018-07-20T04:17:29.989Z,95.63
2018-07-20T04:18:29.984Z,101.25
2018-07-20T04:19:29.979Z,101.25
2018-07-20T04:20:29.983Z,106.88
2018-07-20T04:21:29.980Z,106.88
2018-07-20T04:22:29.973Z,112.50
2018-07-20T04:23:29.973Z,112.50
2018-07-20T04:24:29.969Z,118.13
2018-07-20T04:25:29.966Z,118.13
2018-07-20T04:26:29.968Z,123.75
2018-07-20T04:27:29.967Z,123.75
2018-07-20T04:28:29.966Z,129.38
2018-07-20T04:29:29.968Z,129.38
2018-07-20T04:30:29.957Z,129.38
2018-07-20T04:31:29.955Z,135.00
2018-07-20T04:32:29.954Z,140.63
2018-07-20T04:33:29.951Z,146.25
2018-07-20T04:34:29.953Z,146.25
2018-07-20T04:35:29.953Z,151.88
2018-07-20T04:36:30.116Z,151.88
2018-07-20T04:37:29.943Z,157.50
2018-07-20T04:38:29.947Z,163.13
2018-07-20T04:39:29.946Z,163.13
2018-07-20T04:40:29.942Z,168.75
2018-07-20T04:41:29.940Z,168.75
2018-07-20T04:42:29.934Z,168.75
2018-07-20T04:43:29.933Z,163.13
2018-07-20T04:44:29.932Z,163.13
2018-07-20T04:45:29.931Z,163.13
2018-07-20T04:46:29.931Z,163.13
2018-07-20T04:47:29.934Z,168.75
2018-07-20T04:48:29.930Z,168.75
2018-07-20T04:49:29.930Z,163.13
2018-07-20T04:50:29.928Z,168.75
2018-07-20T04:51:29.921Z,168.75
2018-07-20T04:52:29.925Z,168.75
2018-07-20T04:53:29.921Z,168.75
2018-07-20T04:54:29.917Z,185.63
2018-07-20T04:55:29.914Z,196.88
2018-07-20T04:56:29.918Z,208.13
2018-07-20T04:57:29.912Z,208.13
2018-07-20T04:58:29.915Z,202.50
2018-07-20T04:59:29.913Z,202.50
2018-07-20T05:00:29.912Z,202.50
2018-07-20T05:01:29.910Z,196.88
2018-07-20T05:02:29.906Z,191.25
2018-07-20T05:03:29.905Z,191.25
2018-07-20T05:04:29.904Z,191.25
2018-07-20T05:05:29.903Z,208.13
2018-07-20T05:06:29.907Z,230.63
2018-07-20T05:07:29.905Z,258.75
2018-07-20T05:08:29.900Z,281.25
2018-07-20T05:09:29.898Z,326.25
2018-07-20T05:10:29.903Z,360.00
2018-07-20T05:11:30.001Z,388.13
2018-07-20T05:12:29.901Z,382.50
2018-07-20T05:13:29.902Z,382.50
2018-07-20T05:14:29.895Z,393.75
2018-07-20T05:15:29.896Z,427.50
2018-07-20T05:16:29.895Z,472.50
2018-07-20T05:17:29.895Z,495.00
2018-07-20T05:18:29.901Z,500.63
2018-07-20T05:19:29.899Z,506.25
2018-07-20T05:20:29.898Z,495.00
2018-07-20T05:21:29.898Z,523.13
2018-07-20T05:22:29.894Z,534.38
2018-07-20T05:23:29.896Z,562.50
2018-07-20T05:24:29.902Z,624.38
2018-07-20T05:25:29.899Z,669.38
2018-07-20T05:26:29.895Z,691.88
2018-07-20T05:27:29.897Z,714.38
2018-07-20T05:28:29.898Z,731.25
2018-07-20T05:29:29.898Z,748.13
2018-07-20T05:30:29.904Z,759.38
2018-07-20T05:31:29.905Z,759.38
2018-07-20T05:32:29.914Z,748.13
2018-07-20T05:33:29.909Z,765.00
2018-07-20T05:34:29.905Z,787.50
2018-07-20T05:35:29.908Z,798.75
2018-07-20T05:36:29.910Z,793.13
2018-07-20T05:37:29.911Z,815.63
2018-07-20T05:38:29.924Z,838.13
2018-07-20T05:39:29.920Z,860.63
2018-07-20T05:40:29.918Z,871.88
2018-07-20T05:41:29.921Z,877.50
2018-07-20T05:42:29.928Z,905.63
2018-07-20T05:43:29.931Z,928.13
2018-07-20T05:44:29.936Z,950.63
2018-07-20T05:45:29.944Z,967.50
2018-07-20T05:46:29.938Z,973.13
2018-07-20T05:47:29.940Z,995.63
2018-07-20T05:48:29.945Z,1029.38
2018-07-20T05:49:29.949Z,1040.63
2018-07-20T05:50:29.958Z,1051.88
2018-07-20T05:51:29.963Z,1057.50
2018-07-20T05:52:29.966Z,1068.75
2018-07-20T05:53:30.028Z,1063.13
2018-07-20T05:54:29.972Z,1018.13
2018-07-20T05:55:29.978Z,1080.00
2018-07-20T05:56:29.985Z,1085.63
2018-07-20T05:57:29.990Z,1113.75
2018-07-20T05:58:29.991Z,1113.75
2018-07-20T05:59:29.996Z,1125.00
2018-07-20T06:00:30.002Z,1108.13
2018-07-20T06:01:30.010Z,1113.75
2018-07-20T06:02:30.019Z,1130.63
2018-07-20T06:03:30.026Z,1125.00
2018-07-20T06:04:30.034Z,1147.50
2018-07-20T06:05:30.075Z,1141.88
2018-07-20T06:06:30.039Z,1164.38
2018-07-20T06:07:30.047Z,1164.38
2018-07-20T06:08:30.053Z,1192.50
2018-07-20T06:09:30.058Z,1209.38
2018-07-20T06:10:30.073Z,1243.13
2018-07-20T06:11:30.076Z,1260.00
2018-07-20T06:12:30.080Z,1265.63
2018-07-20T06:13:30.085Z,1243.13
2018-07-20T06:14:30.097Z,1203.75
2018-07-20T06:15:30.105Z,1271.25
2018-07-20T06:16:30.114Z,1310.63
2018-07-20T06:17:30.120Z,1316.25
2018-07-20T06:18:30.122Z,1327.50
2018-07-20T06:19:30.131Z,1321.88
2018-07-20T06:20:30.138Z,1344.38
2018-07-20T06:21:30.154Z,1321.88
2018-07-20T06:22:30.158Z,1344.38
2018-07-20T06:23:30.174Z,1344.38
2018-07-20T06:24:30.175Z,1366.88
2018-07-20T06:25:30.182Z,1355.63
2018-07-20T06:26:30.185Z,1361.25
2018-07-20T06:27:30.194Z,1361.25
2018-07-20T06:28:30.208Z,1361.25
2018-07-20T06:29:30.219Z,1366.88
2018-07-20T06:30:30.219Z,1389.38
2018-07-20T06:31:30.229Z,1372.50
2018-07-20T06:32:30.238Z,1378.13
2018-07-20T06:33:30.245Z,1411.88
2018-07-20T06:34:30.260Z,1445.63
2018-07-20T06:35:30.268Z,1372.50
2018-07-20T06:36:30.277Z,1372.50
2018-07-20T06:37:30.286Z,1378.13
2018-07-20T06:38:30.293Z,1434.38
2018-07-20T06:39:30.301Z,1395.00
2018-07-20T06:40:30.313Z,1485.00
2018-07-20T06:41:30.321Z,1501.88
2018-07-20T06:42:30.336Z,1535.63
2018-07-20T06:43:30.347Z,1569.38
2018-07-20T06:44:30.351Z,1575.00
2018-07-20T06:45:30.361Z,1586.25
2018-07-20T06:46:30.376Z,1563.75
2018-07-20T06:47:30.386Z,1552.50
2018-07-20T06:48:30.399Z,1563.75
2018-07-20T06:49:30.408Z,1507.50
2018-07-20T06:50:30.414Z,1603.13
2018-07-20T06:51:30.438Z,1620.00
2018-07-20T06:52:30.441Z,1625.63
2018-07-20T06:53:30.446Z,1648.13
2018-07-20T06:54:30.462Z,1653.75
2018-07-20T06:55:30.473Z,1659.38
2018-07-20T06:56:30.486Z,1665.00
2018-07-20T06:57:30.502Z,1676.25
2018-07-20T06:58:30.504Z,1676.25
2018-07-20T06:59:30.515Z,1676.25
2018-07-20T07:00:30.533Z,1698.75
2018-07-20T07:01:30.545Z,1698.75
2018-07-20T07:02:30.552Z,1704.38
2018-07-20T07:03:30.567Z,1693.13
2018-07-20T07:04:30.576Z,1305.00
2018-07-20T07:05:30.588Z,1361.25
2018-07-20T07:06:30.604Z,1361.25
2018-07-20T07:07:30.617Z,1366.88
2018-07-20T07:08:30.635Z,1350.00
2018-07-20T07:09:30.682Z,1395.00
2018-07-20T07:10:30.650Z,1406.25
2018-07-20T07:11:30.663Z,1316.25
2018-07-20T07:12:30.676Z,1305.00
2018-07-20T07:13:30.687Z,1333.13
2018-07-20T07:14:30.730Z,1276.88
2018-07-20T07:15:30.719Z,1378.13
2018-07-20T07:16:30.726Z,1389.38
2018-07-20T07:17:30.738Z,1395.00
2018-07-20T07:18:30.756Z,1366.88
2018-07-20T07:19:30.768Z,1395.00
2018-07-20T07:20:30.782Z,1440.00
2018-07-20T07:21:30.795Z,1462.50
2018-07-20T07:22:30.801Z,1479.38
2018-07-20T07:23:30.817Z,1518.75
2018-07-20T07:24:30.829Z,1552.50
2018-07-20T07:25:30.840Z,1563.75
2018-07-20T07:26:30.857Z,1569.38
2018-07-20T07:27:30.870Z,1620.00
2018-07-20T07:28:30.886Z,1636.88
2018-07-20T07:29:30.898Z,1608.75
2018-07-20T07:30:30.906Z,1653.75
2018-07-20T07:31:30.922Z,1670.63
2018-07-20T07:32:30.939Z,1681.88
2018-07-20T07:33:30.952Z,1704.38
2018-07-20T07:34:30.960Z,1771.88
2018-07-20T07:35:30.975Z,1805.63
2018-07-20T07:36:30.991Z,1771.88
2018-07-20T07:37:31.001Z,1856.25
2018-07-20T07:38:31.019Z,1929.38
2018-07-20T07:39:31.033Z,2075.63
2018-07-20T07:40:31.049Z,2300.63
2018-07-20T07:41:31.061Z,2463.75
2018-07-20T07:42:31.072Z,2756.25
2018-07-20T07:43:31.088Z,2953.13
2018-07-20T07:44:31.101Z,2958.75
2018-07-20T07:45:31.115Z,2958.75
2018-07-20T07:46:31.134Z,2868.75
2018-07-20T07:47:31.149Z,2874.38
2018-07-20T07:48:31.158Z,2925.00
2018-07-20T07:49:31.175Z,3054.38
2018-07-20T07:50:31.192Z,3138.75
2018-07-20T07:51:31.205Z,3183.75
2018-07-20T07:52:31.220Z,3121.88
2018-07-20T07:53:31.233Z,3116.25
2018-07-20T07:54:31.245Z,3031.88
2018-07-20T07:55:31.258Z,3172.50
2018-07-20T07:56:31.275Z,3346.88
2018-07-20T07:57:31.288Z,3324.38
2018-07-20T07:58:31.308Z,3335.63
2018-07-20T07:59:31.323Z,3459.38
2018-07-20T08:00:31.338Z,3515.63
2018-07-20T08:01:31.353Z,3684.38
2018-07-20T08:02:31.365Z,3886.88
2018-07-20T08:03:31.384Z,3903.75
2018-07-20T08:04:31.416Z,4050.00
2018-07-20T08:05:31.413Z,3993.75
2018-07-20T08:06:31.425Z,3875.63
2018-07-20T08:07:31.441Z,3763.13
2018-07-20T08:08:31.457Z,3729.38
2018-07-20T08:09:31.471Z,3943.13
2018-07-20T08:10:31.492Z,4252.50
2018-07-20T08:11:31.512Z,4190.63
2018-07-20T08:12:31.525Z,3948.75
2018-07-20T08:13:31.541Z,4106.25
2018-07-20T08:14:31.552Z,4145.63
2018-07-20T08:15:31.573Z,3965.63
2018-07-20T08:16:31.585Z,3943.13
2018-07-20T08:17:31.600Z,3808.13
2018-07-20T08:18:31.621Z,3735.00
2018-07-20T08:19:31.639Z,3774.38
2018-07-20T08:20:31.650Z,3735.00
2018-07-20T08:21:31.669Z,3515.63
2018-07-20T08:22:31.688Z,3498.75
2018-07-20T08:23:31.705Z,3645.00
2018-07-20T08:24:31.722Z,3712.50
2018-07-20T08:25:31.736Z,3740.63
2018-07-20T08:26:31.749Z,3661.88
2018-07-20T08:27:31.769Z,3459.38
2018-07-20T08:28:31.784Z,3583.13
2018-07-20T08:29:31.916Z,3943.13
2018-07-20T08:30:31.828Z,4055.63
2018-07-20T08:31:31.841Z,3886.88
2018-07-20T08:32:31.858Z,3583.13
2018-07-20T08:33:31.876Z,3358.13
2018-07-20T08:34:31.889Z,3470.63
2018-07-20T08:35:31.907Z,3532.50
2018-07-20T08:36:31.929Z,3358.13
2018-07-20T08:37:31.946Z,3346.88
2018-07-20T08:38:31.961Z,3403.13
2018-07-20T08:39:31.979Z,3273.75
2018-07-20T08:40:31.999Z,3206.25
2018-07-20T08:41:32.012Z,3285.00
2018-07-20T08:42:32.038Z,3223.13
2018-07-20T08:43:32.053Z,3138.75
2018-07-20T08:44:32.073Z,3105.00
2018-07-20T08:45:32.090Z,3150.00
2018-07-20T08:46:32.115Z,3138.75
2018-07-20T08:47:32.123Z,3166.88
2018-07-20T08:48:32.140Z,3369.38
2018-07-20T08:49:32.163Z,3369.38
2018-07-20T08:50:32.186Z,3285.00
2018-07-20T08:51:32.204Z,3330.00
2018-07-20T08:52:32.223Z,3335.63
2018-07-20T08:53:32.236Z,3335.63
2018-07-20T08:54:32.261Z,3279.38
2018-07-20T08:55:32.279Z,3082.50
2018-07-20T08:56:32.299Z,3048.75
2018-07-20T08:57:32.317Z,2975.63
2018-07-20T08:58:32.333Z,3324.38
2018-07-20T08:59:32.352Z,3442.50
2018-07-20T09:00:32.372Z,3436.88
2018-07-20T09:01:32.390Z,3380.63
2018-07-20T09:02:32.415Z,3256.88
2018-07-20T09:03:32.485Z,3290.63
2018-07-20T09:04:32.454Z,3403.13
2018-07-20T09:05:32.473Z,3560.63
2018-07-20T09:06:32.488Z,3701.25
2018-07-20T09:07:32.508Z,3791.25
2018-07-20T09:08:32.532Z,3791.25
2018-07-20T09:09:32.551Z,3802.50
2018-07-20T09:10:32.568Z,3870.00
2018-07-20T09:11:32.586Z,4123.13
2018-07-20T09:12:32.607Z,4269.38
2018-07-20T09:13:32.698Z,4190.63
2018-07-20T09:14:32.652Z,3976.88
2018-07-20T09:15:32.671Z,3532.50
2018-07-20T09:16:32.692Z,3262.50
2018-07-20T09:17:32.712Z,3144.38
2018-07-20T09:18:32.731Z,3127.50
2018-07-20T09:19:32.749Z,3076.88
2018-07-20T09:20:32.796Z,2998.13
2018-07-20T09:21:32.788Z,2992.50
2018-07-20T09:22:32.811Z,3048.75
2018-07-20T09:23:32.831Z,3054.38
2018-07-20T09:24:32.849Z,2975.63
2018-07-20T09:25:32.867Z,3003.75
2018-07-20T09:26:32.892Z,3037.50
2018-07-20T09:27:32.912Z,3105.00
2018-07-20T09:28:32.933Z,3150.00
2018-07-20T09:29:32.951Z,3133.13
2018-07-20T09:30:32.968Z,3082.50
2018-07-20T09:31:32.988Z,3155.63
2018-07-20T09:32:33.008Z,3155.63
2018-07-20T09:33:33.027Z,3200.63
2018-07-20T09:34:33.051Z,3228.75
2018-07-20T09:35:33.074Z,3268.13
2018-07-20T09:36:33.093Z,3290.63
2018-07-20T09:37:33.113Z,3341.25
2018-07-20T09:38:33.127Z,3341.25
2018-07-20T09:39:33.149Z,3301.88
2018-07-20T09:40:33.174Z,3313.13
2018-07-20T09:41:33.192Z,3279.38
2018-07-20T09:42:33.207Z,3245.63
2018-07-20T09:43:33.227Z,2908.13
2018-07-20T09:44:33.248Z,2694.38
2018-07-20T09:45:33.266Z,2958.75
2018-07-20T09:46:33.290Z,3110.63
2018-07-20T09:47:33.309Z,3060.00
2018-07-20T09:48:33.329Z,2683.13
2018-07-20T09:49:33.347Z,2812.50
2018-07-20T09:50:33.363Z,2874.38
2018-07-20T09:51:33.381Z,2761.88
2018-07-20T09:52:33.399Z,3110.63
2018-07-20T09:53:33.420Z,3240.00
2018-07-20T09:54:33.439Z,3335.63
2018-07-20T09:55:33.460Z,3346.88
2018-07-20T09:56:33.471Z,3380.63
2018-07-20T09:57:33.487Z,2936.25
2018-07-20T09:58:33.542Z,2981.25
2018-07-20T09:59:33.587Z,3037.50
2018-07-20T10:00:33.546Z,2823.75
2018-07-20T10:01:33.562Z,2784.38
2018-07-20T10:02:33.575Z,2823.75
2018-07-20T10:03:33.592Z,2981.25
2018-07-20T10:04:33.609Z,2745.00
2018-07-20T10:05:33.627Z,2525.63
2018-07-20T10:06:33.649Z,2463.75
2018-07-20T10:07:33.675Z,2458.13
2018-07-20T10:08:33.683Z,2475.00
2018-07-20T10:09:33.700Z,2340.00
2018-07-20T10:10:33.712Z,2351.25
2018-07-20T10:11:33.733Z,2317.50
2018-07-20T10:12:33.784Z,2340.00
2018-07-20T10:13:33.768Z,2435.63
2018-07-20T10:14:33.780Z,2441.25
2018-07-20T10:15:33.796Z,2407.50
2018-07-20T10:16:33.813Z,2334.38
2018-07-20T10:17:33.829Z,2272.50
2018-07-20T10:18:33.851Z,2295.00
2018-07-20T10:19:33.875Z,2250.00
2018-07-20T10:20:33.885Z,2238.75
2018-07-20T10:21:33.901Z,2250.00
2018-07-20T10:22:33.914Z,2244.38
2018-07-20T10:23:33.930Z,2379.38
2018-07-20T10:24:33.947Z,2272.50
2018-07-20T10:25:34.023Z,2328.75
2018-07-20T10:26:33.985Z,2368.13
2018-07-20T10:27:34.002Z,2463.75
2018-07-20T10:28:34.015Z,2638.13
2018-07-20T10:29:34.031Z,3206.25
2018-07-20T10:30:34.075Z,3892.50
2018-07-20T10:31:34.071Z,3999.38
2018-07-20T10:32:34.088Z,3982.50
2018-07-20T10:33:34.108Z,3808.13
2018-07-20T10:34:34.117Z,3645.00
2018-07-20T10:35:34.136Z,3431.25
2018-07-20T10:36:34.183Z,2970.00
2018-07-20T10:37:34.171Z,2812.50
2018-07-20T10:38:34.195Z,3009.38
2018-07-20T10:39:34.212Z,3363.75
2018-07-20T10:40:34.230Z,3459.38
2018-07-20T10:41:34.247Z,3656.25
2018-07-20T10:42:34.264Z,3796.88
2018-07-20T10:43:34.279Z,3566.25
2018-07-20T10:44:34.302Z,3240.00
2018-07-20T10:45:34.320Z,3127.50
2018-07-20T10:46:34.334Z,2790.00
2018-07-20T10:47:34.353Z,3031.88
2018-07-20T10:48:34.371Z,3200.63
2018-07-20T10:49:34.390Z,3324.38
2018-07-20T10:50:34.412Z,3386.25
2018-07-20T10:51:34.431Z,3583.13
2018-07-20T10:52:34.448Z,3611.25
2018-07-20T10:53:34.468Z,3819.38
2018-07-20T10:54:34.481Z,3903.75
2018-07-20T10:55:34.498Z,3881.25
2018-07-20T10:56:34.515Z,3785.63
2018-07-20T10:57:34.532Z,3701.25
2018-07-20T10:58:34.555Z,3673.13
2018-07-20T10:59:34.571Z,3566.25
2018-07-20T11:00:34.589Z,3532.50
2018-07-20T11:01:34.674Z,3436.88
2018-07-20T11:02:34.625Z,3301.88
2018-07-20T11:03:34.646Z,3616.88
2018-07-20T11:04:34.660Z,3796.88
2018-07-20T11:05:34.675Z,4123.13
2018-07-20T11:06:34.690Z,4078.13
2018-07-20T11:07:34.710Z,4134.38
2018-07-20T11:08:34.723Z,3937.50
2018-07-20T11:09:34.739Z,3931.88
2018-07-20T11:10:34.762Z,3830.63
2018-07-20T11:11:34.779Z,3408.75
2018-07-20T11:12:34.795Z,3667.50
2018-07-20T11:13:34.811Z,4050.00
2018-07-20T11:14:34.824Z,4151.25
2018-07-20T11:15:34.841Z,4303.13
2018-07-20T11:16:34.864Z,4314.38
2018-07-20T11:17:34.910Z,4044.38
2018-07-20T11:18:34.891Z,4106.25
2018-07-20T11:19:34.909Z,4156.88
2018-07-20T11:20:34.927Z,4123.13
2018-07-20T11:21:34.943Z,3774.38
2018-07-20T11:22:34.966Z,4027.50
2018-07-20T11:23:34.982Z,4005.00
2018-07-20T11:24:34.998Z,4151.25
2018-07-20T11:25:35.015Z,4027.50
2018-07-20T11:26:35.027Z,3656.25
2018-07-20T11:27:35.043Z,3476.25
2018-07-20T11:28:35.059Z,1721.25
2018-07-20T11:29:35.076Z,1147.50
2018-07-20T11:30:35.095Z,1029.38
2018-07-20T11:31:35.112Z,1001.25
2018-07-20T11:32:35.126Z,967.50
2018-07-20T11:33:35.139Z,967.50
2018-07-20T11:34:35.191Z,973.13
2018-07-20T11:35:35.173Z,978.75
2018-07-20T11:36:35.192Z,956.25
2018-07-20T11:37:35.204Z,928.13
2018-07-20T11:38:35.217Z,900.00
2018-07-20T11:39:35.228Z,900.00
2018-07-20T11:40:35.245Z,900.00
2018-07-20T11:41:35.259Z,877.50
2018-07-20T11:42:35.270Z,838.13
2018-07-20T11:43:35.284Z,855.00
2018-07-20T11:44:35.299Z,860.63
2018-07-20T11:45:35.308Z,838.13
2018-07-20T11:46:35.328Z,838.13
2018-07-20T11:47:35.341Z,838.13
2018-07-20T11:48:35.350Z,849.38
2018-07-20T11:49:35.361Z,849.38
2018-07-20T11:50:35.377Z,860.63
2018-07-20T11:51:35.390Z,849.38
2018-07-20T11:52:35.402Z,838.13
2018-07-20T11:53:35.412Z,838.13
2018-07-20T11:54:35.419Z,838.13
2018-07-20T11:55:35.433Z,843.75
2018-07-20T11:56:35.442Z,843.75
2018-07-20T11:57:35.454Z,843.75
2018-07-20T11:58:35.469Z,832.50
2018-07-20T11:59:35.481Z,826.88
2018-07-20T12:00:35.492Z,826.88
2018-07-20T12:01:35.504Z,826.88
2018-07-20T12:02:35.507Z,821.25
2018-07-20T12:03:35.518Z,810.00
2018-07-20T12:04:35.535Z,793.13
2018-07-20T12:05:35.543Z,781.88
2018-07-20T12:06:35.552Z,776.25
2018-07-20T12:07:35.561Z,759.38
2018-07-20T12:08:35.570Z,759.38
2018-07-20T12:09:35.579Z,759.38
2018-07-20T12:10:35.593Z,753.75
2018-07-20T12:11:35.603Z,742.50
2018-07-20T12:12:35.613Z,736.88
2018-07-20T12:13:35.622Z,731.25
2018-07-20T12:14:35.628Z,731.25
2018-07-20T12:15:35.638Z,736.88
2018-07-20T12:16:35.649Z,742.50
2018-07-20T12:17:35.657Z,753.75
2018-07-20T12:18:35.671Z,765.00
2018-07-20T12:19:35.680Z,770.63
2018-07-20T12:20:35.685Z,776.25
2018-07-20T12:21:35.694Z,781.88
2018-07-20T12:22:35.708Z,781.88
2018-07-20T12:23:35.716Z,781.88
2018-07-20T12:24:35.725Z,781.88
2018-07-20T12:25:35.733Z,770.63
2018-07-20T12:26:35.738Z,753.75
2018-07-20T12:27:35.748Z,720.00
2018-07-20T12:28:35.756Z,697.50
2018-07-20T12:29:35.765Z,658.13
2018-07-20T12:30:35.777Z,635.63
2018-07-20T12:31:35.786Z,601.88
2018-07-20T12:32:35.796Z,585.00